METAR Data
IDs: Format: Raw Decoded Include TAF

Data at: 1055 UTC 07 Dec 2022

KDHN 071053Z AUTO 19004KT 1/4SM FG VV002 20/20 A3029 RMK AO2 SLP254 T02000200